Time;durP1;ratioP1;P1;durP2;ratioP2;P2;SDS_P1;SDS_P2;PMS_P1;PMS_P2;Temp;Humidity;BMP_temperature;BMP_pressure;BME280_temperature;BME280_humidity;BME280_pressure;Samples;Min_cycle;Max_cycle;Signal;HPM_P1;HPM_P2
2023/06/23 00:02:00;;;;;;;19.87;14.10;;;18.20;1.00;;;;;;5056482;28;20296;-83
2023/06/23 00:04:26;;;;;;;18.47;11.87;;;18.20;1.00;;;;;;5061739;28;20452;-82
2023/06/23 00:06:51;;;;;;;15.23;13.17;;;18.10;1.00;;;;;;5068681;28;20180;-82
2023/06/23 00:09:17;;;;;;;15.73;12.00;;;18.10;1.00;;;;;;5067235;28;20216;-81
2023/06/23 00:11:44;;;;;;;14.00;10.90;;;18.10;1.00;;;;;;5053073;28;20634;-82
2023/06/23 00:14:11;;;;;;;14.70;11.40;;;18.10;1.00;;;;;;5060032;28;20446;-82
2023/06/23 00:16:36;;;;;;;11.93;9.77;;;18.10;1.00;;;;;;5064316;28;20434;-83
2023/06/23 00:19:03;;;;;;;15.97;10.43;;;18.10;1.00;;;;;;5067512;28;20513;-81
2023/06/23 00:21:29;;;;;;;14.57;9.90;;;18.00;1.00;;;;;;5058455;28;20566;-83
2023/06/23 00:23:55;;;;;;;13.07;9.70;;;18.00;1.00;;;;;;5064505;28;20435;-82
2023/06/23 00:26:20;;;;;;;14.83;10.67;;;17.90;99.90;;;;;;5059970;28;20497;-83
2023/06/23 00:28:46;;;;;;;12.60;8.50;;;17.80;99.90;;;;;;5059412;28;20462;-81
2023/06/23 00:31:11;;;;;;;14.10;9.50;;;17.80;99.90;;;;;;5063908;28;20492;-83
2023/06/23 00:33:37;;;;;;;13.03;7.90;;;17.80;99.90;;;;;;5067500;28;20209;-82
2023/06/23 00:36:04;;;;;;;15.73;7.90;;;17.70;99.90;;;;;;5069124;28;20199;-83
2023/06/23 00:38:29;;;;;;;13.00;7.87;;;17.70;99.90;;;;;;5057163;28;20439;-83
2023/06/23 00:40:55;;;;;;;14.17;8.77;;;17.70;99.90;;;;;;5057079;28;20466;-83
2023/06/23 00:43:21;;;;;;;10.97;8.90;;;17.70;99.90;;;;;;5065165;28;20188;-83
2023/06/23 00:45:47;;;;;;;9.80;8.53;;;17.70;99.90;;;;;;5068646;28;20231;-83
2023/06/23 00:48:14;;;;;;;11.83;8.80;;;17.60;99.90;;;;;;5078497;22;20259;-79
2023/06/23 00:50:41;;;;;;;9.80;8.70;;;17.60;99.90;;;;;;5035815;28;20427;-79
2023/06/23 00:53:07;;;;;;;14.37;9.37;;;17.60;99.90;;;;;;5037032;28;20582;-79
2023/06/23 00:55:38;;;;;;;12.30;8.10;;;17.60;99.90;;;;;;5033221;28;20462;-79
2023/06/23 00:58:05;;;;;;;11.23;8.27;;;17.60;99.90;;;;;;5051224;28;20195;-79
2023/06/23 01:00:30;;;;;;;10.37;8.23;;;17.60;99.90;;;;;;5056113;28;20434;-79
2023/06/23 01:03:01;;;;;;;12.43;8.90;;;17.50;99.90;;;;;;5038077;28;20523;-79
2023/06/23 01:05:34;;;;;;;18.37;10.03;;;17.50;99.90;;;;;;5055255;28;20241;-79
2023/06/23 01:08:10;;;;;;;14.13;10.13;;;17.50;99.90;;;;;;5055865;28;20448;-79
2023/06/23 01:10:56;;;;;;;13.40;9.80;;;17.40;99.90;;;;;;5055872;28;20459;-79
2023/06/23 01:13:47;;;;;;;16.63;11.33;;;17.40;99.90;;;;;;5051445;28;20474;-79
2023/06/23 01:16:37;;;;;;;16.33;10.77;;;17.40;1.00;;;;;;5056148;28;20448;-79
2023/06/23 01:19:27;;;;;;;15.93;10.43;;;17.30;1.00;;;;;;5032494;28;20429;-79
2023/06/23 01:22:18;;;;;;;16.57;11.13;;;17.30;1.00;;;;;;5035401;28;20506;-79
2023/06/23 01:25:11;;;;;;;14.97;10.70;;;17.30;1.00;;;;;;5050692;28;20461;-78
2023/06/23 01:27:52;;;;;;;15.67;9.60;;;17.20;1.00;;;;;;5035429;28;21277;-79
2023/06/23 01:30:19;;;;;;;13.90;10.93;;;17.20;1.00;;;;;;5051786;28;20450;-79
2023/06/23 01:32:50;;;;;;;16.60;10.90;;;17.20;1.00;;;;;;5053924;28;20450;-79
2023/06/23 01:35:27;;;;;;;15.47;9.10;;;17.10;1.00;;;;;;5055738;28;20439;-79
2023/06/23 01:38:02;;;;;;;21.07;11.40;;;17.10;1.00;;;;;;5052716;28;20483;-79
2023/06/23 01:40:28;;;;;;;18.90;11.40;;;17.10;1.00;;;;;;5054787;28;20475;-79
2023/06/23 01:42:56;;;;;;;13.37;10.93;;;17.10;1.00;;;;;;5055188;28;20441;-79
2023/06/23 01:45:24;;;;;;;15.00;11.80;;;17.10;1.00;;;;;;5049762;28;20256;-79
2023/06/23 01:47:51;;;;;;;13.23;11.83;;;17.10;1.00;;;;;;5052096;28;20472;-79
2023/06/23 01:50:19;;;;;;;19.10;12.43;;;17.00;1.00;;;;;;5054917;28;20436;-78
2023/06/23 01:52:47;;;;;;;14.00;11.20;;;17.00;1.00;;;;;;5054691;28;20428;-79
2023/06/23 01:55:14;;;;;;;19.80;11.80;;;17.00;1.00;;;;;;5053522;28;20947;-79
2023/06/23 01:57:42;;;;;;;20.87;12.80;;;17.00;1.00;;;;;;5051477;28;20450;-79
2023/06/23 02:00:13;;;;;;;20.83;12.30;;;17.00;1.00;;;;;;5051541;28;20429;-79
2023/06/23 02:02:45;;;;;;;19.03;13.37;;;17.00;1.00;;;;;;5047950;28;20509;-79
2023/06/23 02:05:12;;;;;;;18.70;13.53;;;17.00;1.00;;;;;;5050952;28;20468;-78
2023/06/23 02:07:40;;;;;;;21.07;15.27;;;17.00;1.00;;;;;;5050069;28;20472;-77
2023/06/23 02:10:07;;;;;;;19.63;14.47;;;16.90;1.00;;;;;;5049534;28;20445;-77
2023/06/23 02:12:35;;;;;;;24.10;15.30;;;16.90;1.00;;;;;;5051537;28;20440;-78
2023/06/23 02:15:03;;;;;;;21.37;15.17;;;16.90;1.00;;;;;;5051553;28;20461;-79
2023/06/23 02:17:29;;;;;;;25.53;15.37;;;16.90;1.00;;;;;;5052843;28;20469;-78
2023/06/23 02:19:56;;;;;;;21.67;15.60;;;16.90;1.00;;;;;;5051591;28;20531;-79
2023/06/23 02:22:24;;;;;;;26.57;17.17;;;16.90;1.00;;;;;;5047951;28;20499;-79
2023/06/23 02:24:51;;;;;;;19.57;16.20;;;16.90;1.00;;;;;;5052162;28;20471;-79
2023/06/23 02:27:18;;;;;;;19.60;16.37;;;16.90;1.00;;;;;;5053038;28;20821;-79
2023/06/23 02:29:45;;;;;;;22.97;16.60;;;16.90;1.00;;;;;;5052175;28;20489;-79
2023/06/23 02:32:16;;;;;;;23.90;17.33;;;16.90;1.00;;;;;;5052271;28;20437;-79
2023/06/23 02:34:46;;;;;;;21.13;16.87;;;16.90;1.00;;;;;;5050989;28;20504;-79
2023/06/23 02:37:16;;;;;;;22.77;16.53;;;16.90;1.00;;;;;;5051449;28;20452;-79
2023/06/23 02:39:48;;;;;;;24.20;17.20;;;16.80;1.00;;;;;;5048284;28;21021;-78
2023/06/23 02:42:15;;;;;;;26.60;18.60;;;16.80;1.00;;;;;;5052438;28;20529;-79
2023/06/23 02:44:51;;;;;;;26.27;17.77;;;16.80;1.00;;;;;;5057957;28;20853;-79
2023/06/23 02:47:19;;;;;;;22.87;18.60;;;16.70;1.00;;;;;;5060250;28;20891;-78
2023/06/23 02:49:47;;;;;;;25.03;18.13;;;16.70;1.00;;;;;;5052783;28;20844;-78
2023/06/23 02:52:15;;;;;;;27.07;19.10;;;16.70;1.00;;;;;;5051970;28;20458;-78
2023/06/23 02:54:45;;;;;;;26.37;20.60;;;16.70;1.00;;;;;;5051249;28;20468;-78
2023/06/23 02:57:14;;;;;;;27.97;20.30;;;16.70;1.00;;;;;;5048632;28;20488;-78
2023/06/23 02:59:44;;;;;;;27.57;19.33;;;16.60;1.00;;;;;;5050729;28;20478;-78
2023/06/23 03:02:13;;;;;;;30.93;22.00;;;16.60;1.00;;;;;;5051896;28;20428;-78
2023/06/23 03:04:41;;;;;;;37.17;21.87;;;16.60;1.00;;;;;;5051245;28;20505;-78
2023/06/23 03:07:08;;;;;;;29.70;20.30;;;16.60;1.00;;;;;;5050998;28;20543;-78
2023/06/23 03:09:34;;;;;;;34.40;22.37;;;16.60;1.00;;;;;;5051176;28;20472;-78
2023/06/23 03:11:59;;;;;;;27.47;21.53;;;16.50;1.00;;;;;;5053448;28;20455;-78
2023/06/23 03:14:26;;;;;;;32.03;23.70;;;16.50;1.00;;;;;;5051121;28;21032;-78
2023/06/23 03:17:21;;;;;;;32.77;23.70;;;16.50;1.00;;;;;;5055978;28;21079;-78
2023/06/23 03:19:54;;;;;;;34.53;24.20;;;16.50;1.00;;;;;;5055141;28;20442;-78
2023/06/23 03:22:29;;;;;;;39.60;25.23;;;16.50;1.00;;;;;;5054039;28;20466;-78
2023/06/23 03:25:02;;;;;;;38.50;25.10;;;16.50;1.00;;;;;;5055236;28;20467;-78
2023/06/23 03:27:29;;;;;;;41.63;26.00;;;16.40;1.00;;;;;;5055413;28;20461;-78
2023/06/23 03:30:20;;;;;;;39.67;26.50;;;16.40;1.00;;;;;;5048634;28;20432;-78
2023/06/23 03:32:51;;;;;;;39.77;24.93;;;16.40;1.00;;;;;;5044656;28;20450;-78
2023/06/23 03:35:21;;;;;;;45.60;26.27;;;16.40;1.00;;;;;;5055262;28;20443;-78
2023/06/23 03:37:59;;;;;;;38.73;26.43;;;16.40;1.00;;;;;;5054569;28;20495;-78
2023/06/23 03:40:27;;;;;;;39.83;24.77;;;16.40;1.00;;;;;;5054750;28;20853;-78
2023/06/23 03:43:03;;;;;;;39.73;26.63;;;16.40;1.00;;;;;;5054556;28;20431;-78
2023/06/23 03:45:30;;;;;;;37.53;27.70;;;16.40;1.00;;;;;;5052829;28;20993;-78
2023/06/23 03:48:03;;;;;;;39.73;27.17;;;16.50;1.00;;;;;;5058231;28;20906;-78
2023/06/23 03:50:33;;;;;;;42.10;27.63;;;16.50;1.00;;;;;;5051704;28;20440;-78
2023/06/23 03:53:04;;;;;;;39.40;27.50;;;16.50;1.00;;;;;;5052051;28;20463;-78
2023/06/23 03:55:33;;;;;;;40.00;27.47;;;16.50;1.00;;;;;;5052950;28;20439;-78
2023/06/23 03:58:04;;;;;;;39.30;26.67;;;16.60;1.00;;;;;;5052622;28;20512;-78
2023/06/23 04:00:33;;;;;;;39.73;27.10;;;16.60;1.00;;;;;;5051386;28;20436;-78
2023/06/23 04:03:00;;;;;;;38.53;28.70;;;16.60;1.00;;;;;;5055253;28;20431;-78
2023/06/23 04:05:30;;;;;;;47.50;27.00;;;16.70;1.00;;;;;;5053480;28;20964;-78
2023/06/23 04:07:58;;;;;;;36.83;26.07;;;16.70;1.00;;;;;;5043688;28;20457;-78
2023/06/23 04:10:25;;;;;;;44.00;28.67;;;16.70;1.00;;;;;;5054830;28;20460;-78
2023/06/23 04:12:52;;;;;;;36.77;27.27;;;16.80;1.00;;;;;;5055026;28;20796;-78
2023/06/23 04:15:19;;;;;;;42.70;25.37;;;16.80;1.00;;;;;;5055162;28;20439;-78
2023/06/23 04:17:45;;;;;;;37.50;26.07;;;16.80;1.00;;;;;;5056878;28;20525;-78
2023/06/23 04:20:13;;;;;;;33.77;25.33;;;16.90;1.00;;;;;;5057453;28;20528;-78
2023/06/23 04:22:42;;;;;;;41.37;25.37;;;16.90;1.00;;;;;;5056548;28;20504;-78
2023/06/23 04:25:08;;;;;;;35.23;26.90;;;17.00;1.00;;;;;;5052584;28;20475;-78
2023/06/23 04:27:35;;;;;;;38.63;25.67;;;17.00;1.00;;;;;;5056900;28;20569;-78
2023/06/23 04:30:03;;;;;;;37.47;25.53;;;17.10;1.00;;;;;;5056326;28;20445;-78
2023/06/23 04:32:29;;;;;;;34.83;25.33;;;17.20;1.00;;;;;;5037877;28;20447;-78
2023/06/23 04:34:55;;;;;;;31.93;26.10;;;17.20;1.00;;;;;;5056318;28;20468;-78
2023/06/23 04:37:28;;;;;;;35.13;25.23;;;17.30;1.00;;;;;;5056859;28;20223;-78
2023/06/23 04:40:20;;;;;;;36.43;25.47;;;17.40;1.00;;;;;;5056399;28;20191;-78
2023/06/23 04:42:57;;;;;;;39.43;27.53;;;17.40;1.00;;;;;;5049829;28;20452;-78
2023/06/23 04:45:26;;;;;;;34.10;25.23;;;17.50;1.00;;;;;;5056093;28;20541;-79
2023/06/23 04:47:59;;;;;;;35.87;25.30;;;17.60;1.00;;;;;;5056495;28;20469;-79
2023/06/23 04:50:28;;;;;;;36.90;24.90;;;17.70;1.00;;;;;;5058113;28;20414;-79
2023/06/23 04:53:11;;;;;;;34.07;24.33;;;17.80;1.00;;;;;;5058320;28;20408;-79
2023/06/23 04:55:39;;;;;;;34.23;24.33;;;18.00;1.00;;;;;;5058003;28;20515;-79
2023/06/23 04:58:08;;;;;;;33.97;22.33;;;18.10;99.90;;;;;;5056894;28;20534;-79
2023/06/23 05:00:35;;;;;;;30.03;23.30;;;18.20;99.90;;;;;;5054171;28;20450;-79
2023/06/23 05:03:02;;;;;;;36.20;23.70;;;18.30;99.90;;;;;;5057361;28;20447;-79
2023/06/23 05:05:30;;;;;;;30.47;22.77;;;18.40;99.90;;;;;;5056972;28;21015;-78
2023/06/23 05:07:57;;;;;;;32.03;24.27;;;18.60;99.90;;;;;;5057034;28;20433;-79
2023/06/23 05:10:25;;;;;;;29.30;22.00;;;18.60;99.90;;;;;;5057673;28;20416;-79
2023/06/23 05:12:53;;;;;;;29.83;23.33;;;18.70;19.00;;;;;;5053594;28;20559;-78
2023/06/23 05:15:20;;;;;;;34.73;25.13;;;18.80;1.00;;;;;;5053729;28;20662;-79
2023/06/23 05:17:48;;;;;;;26.73;22.60;;;18.80;1.00;;;;;;5050927;28;20470;-79
2023/06/23 05:20:17;;;;;;;29.50;24.10;;;18.90;1.00;;;;;;5052320;28;20423;-79
2023/06/23 05:22:46;;;;;;;31.33;24.23;;;19.10;99.90;;;;;;5052868;28;20931;-79
2023/06/23 05:25:13;;;;;;;31.03;25.40;;;19.20;99.90;;;;;;5053032;28;20463;-77
2023/06/23 05:27:44;;;;;;;31.07;24.03;;;19.30;92.60;;;;;;5052270;28;20497;-78
2023/06/23 05:30:15;;;;;;;32.70;24.80;;;19.40;1.00;;;;;;5053289;28;20450;-78
2023/06/23 05:32:41;;;;;;;32.30;24.40;;;19.60;99.90;;;;;;5052966;28;20449;-77
2023/06/23 05:35:09;;;;;;;35.00;25.47;;;19.70;1.00;;;;;;5050911;28;20448;-78
2023/06/23 05:37:37;;;;;;;32.60;24.57;;;19.80;99.90;;;;;;5048419;28;20517;-78
2023/06/23 05:40:04;;;;;;;41.30;25.10;;;20.00;1.00;;;;;;5051975;28;20420;-78
2023/06/23 05:42:32;;;;;;;38.53;25.70;;;20.10;99.90;;;;;;5052830;28;20421;-78
2023/06/23 05:45:00;;;;;;;30.10;22.97;;;20.30;1.00;;;;;;5052446;28;20465;-78
2023/06/23 05:47:30;;;;;;;27.30;23.60;;;20.40;99.90;;;;;;5052805;28;20508;-77
2023/06/23 05:50:01;;;;;;;31.13;24.43;;;20.60;1.00;;;;;;5051077;28;20429;-78
2023/06/23 05:52:31;;;;;;;33.40;22.87;;;20.80;1.00;;;;;;5047956;28;20423;-78
2023/06/23 05:55:00;;;;;;;28.30;23.70;;;21.00;1.00;;;;;;5049133;28;21095;-78
2023/06/23 05:57:29;;;;;;;28.03;24.00;;;21.10;99.90;;;;;;5051674;28;20579;-78
2023/06/23 06:00:13;;;;;;;28.80;24.13;;;21.20;58.60;;;;;;5052546;28;20456;-78
2023/06/23 06:02:43;;;;;;;33.83;22.60;;;21.30;1.00;;;;;;5053034;28;20859;-78
2023/06/23 06:05:11;;;;;;;27.07;22.90;;;21.40;1.00;;;;;;5052954;28;20857;-78
2023/06/23 06:07:37;;;;;;;26.23;22.00;;;21.80;99.90;;;;;;5051786;28;20867;-78
2023/06/23 06:10:06;;;;;;;27.10;22.37;;;21.70;99.90;;;;;;5052623;28;20455;-78
2023/06/23 06:12:34;;;;;;;27.67;22.67;;;22.00;99.90;;;;;;5048137;28;20454;-78
2023/06/23 06:15:02;;;;;;;29.13;22.50;;;21.90;99.90;;;;;;5043950;28;20489;-78
2023/06/23 06:17:30;;;;;;;20.43;18.23;;;22.50;99.90;;;;;;5053361;28;20789;-78
2023/06/23 06:19:59;;;;;;;28.47;22.70;;;23.90;1.00;;;;;;5052275;28;20432;-78
2023/06/23 06:22:26;;;;;;;25.77;20.43;;;23.90;99.90;;;;;;5053130;28;20434;-78
2023/06/23 06:24:53;;;;;;;25.43;19.97;;;25.50;99.90;;;;;;5053122;28;20470;-78
2023/06/23 06:27:21;;;;;;;23.80;21.30;;;29.00;99.90;;;;;;5048556;28;20862;-79
2023/06/23 06:29:48;;;;;;;21.40;19.23;;;28.30;99.90;;;;;;5052576;28;20502;-79
2023/06/23 06:32:14;;;;;;;24.23;21.20;;;27.50;99.90;;;;;;5053544;28;20451;-79
2023/06/23 06:34:43;;;;;;;30.63;20.63;;;27.00;99.90;;;;;;5053710;28;20432;-79
2023/06/23 06:37:09;;;;;;;21.33;19.23;;;28.00;99.90;;;;;;5053147;28;20440;-79
2023/06/23 06:39:37;;;;;;;24.30;21.83;;;28.70;99.90;;;;;;5049613;28;20454;-79
2023/06/23 06:42:03;;;;;;;21.37;18.97;;;27.80;99.90;;;;;;5044293;28;20458;-79
2023/06/23 06:44:29;;;;;;;21.33;19.33;;;30.00;99.90;;;;;;5033499;28;20427;-79
2023/06/23 06:46:55;;;;;;;22.13;19.70;;;29.70;99.90;;;;;;5054848;28;20471;-80
2023/06/23 06:49:23;;;;;;;19.27;17.27;;;33.50;99.90;;;;;;5055702;28;20420;-77
2023/06/23 06:51:50;;;;;;;19.20;17.30;;;35.00;99.90;;;;;;5054293;28;20454;-78
2023/06/23 06:54:16;;;;;;;16.77;15.10;;;36.90;99.90;;;;;;5054242;28;20489;-78
2023/06/23 06:56:42;;;;;;;17.53;15.83;;;39.30;99.90;;;;;;5051958;28;20545;-78
2023/06/23 06:59:08;;;;;;;16.90;15.30;;;41.40;99.90;;;;;;5055458;28;20427;-78
2023/06/23 07:01:35;;;;;;;19.53;15.67;;;42.90;99.90;;;;;;5056316;28;20227;-79
2023/06/23 07:04:03;;;;;;;14.80;13.57;;;42.70;99.90;;;;;;5055423;28;20693;-78
2023/06/23 07:06:29;;;;;;;15.50;14.10;;;44.70;99.90;;;;;;5054310;28;21011;-79
2023/06/23 07:08:54;;;;;;;15.30;13.80;;;44.90;98.00;;;;;;5055026;28;20436;-79
2023/06/23 07:11:20;;;;;;;15.93;14.60;;;45.60;92.00;;;;;;5052964;28;20201;-79
2023/06/23 07:13:45;;;;;;;15.00;13.70;;;43.80;72.40;;;;;;5050653;28;20564;-79
2023/06/23 07:16:11;;;;;;;14.50;12.83;;;43.50;62.40;;;;;;5060913;28;20225;-80
2023/06/23 07:18:36;;;;;;;13.10;11.90;;;43.80;57.60;;;;;;5064617;28;20202;-79
2023/06/23 07:21:03;;;;;;;12.53;11.47;;;45.50;55.40;;;;;;5061727;28;20181;-79
2023/06/23 07:23:29;;;;;;;13.10;12.10;;;46.80;50.60;;;;;;5062009;28;20215;-79
2023/06/23 07:25:54;;;;;;;13.10;11.97;;;47.30;45.10;;;;;;5060380;28;20427;-79
2023/06/23 07:28:20;;;;;;;14.53;13.13;;;47.90;40.30;;;;;;5059892;28;20201;-79
2023/06/23 07:30:46;;;;;;;14.77;13.57;;;44.90;29.00;;;;;;5057530;28;20216;-79
2023/06/23 07:33:11;;;;;;;13.37;12.23;;;45.20;28.10;;;;;;5058719;28;20318;-79
2023/06/23 07:35:36;;;;;;;13.63;12.17;;;44.70;24.70;;;;;;5053191;28;20279;-78
2023/06/23 07:38:02;;;;;;;14.30;12.90;;;43.90;21.90;;;;;;5055868;28;20209;-79
2023/06/23 07:40:28;;;;;;;13.77;12.57;;;41.20;17.30;;;;;;5056519;28;20603;-79
2023/06/23 07:42:53;;;;;;;14.37;13.17;;;41.10;18.30;;;;;;5057120;28;20178;-79
2023/06/23 07:45:19;;;;;;;14.37;12.97;;;38.70;14.70;;;;;;5057739;28;20196;-79
2023/06/23 07:47:44;;;;;;;13.83;12.43;;;39.80;18.60;;;;;;5058521;28;20229;-79
2023/06/23 07:50:10;;;;;;;12.77;11.47;;;39.20;16.90;;;;;;5055953;28;20213;-79
2023/06/23 07:52:35;;;;;;;12.87;11.00;;;38.90;17.00;;;;;;5054317;28;20186;-79
2023/06/23 07:55:01;;;;;;;12.23;11.07;;;39.50;18.70;;;;;;5056542;28;20315;-79
2023/06/23 07:57:27;;;;;;;10.80;10.00;;;41.10;21.70;;;;;;5057361;28;20212;-80
2023/06/23 07:59:52;;;;;;;15.33;10.00;;;43.40;23.40;;;;;;5055098;28;20170;-77
2023/06/23 08:02:18;;;;;;;10.57;9.57;;;45.20;23.00;;;;;;5054459;28;20185;-77
2023/06/23 08:04:43;;;;;;;10.00;9.23;;;46.60;22.10;;;;;;5055365;28;20177;-77
2023/06/23 08:07:09;;;;;;;11.10;10.20;;;47.60;20.80;;;;;;5054011;28;20193;-79
2023/06/23 08:09:34;;;;;;;11.47;10.47;;;48.00;18.60;;;;;;5055977;28;20540;-78
2023/06/23 08:12:00;;;;;;;12.93;10.47;;;48.40;17.00;;;;;;5055544;28;20177;-79
2023/06/23 08:14:25;;;;;;;11.20;10.20;;;49.00;15.10;;;;;;5057035;28;20181;-78
2023/06/23 08:16:51;;;;;;;10.40;9.60;;;49.10;13.30;;;;;;5059912;28;20220;-79
2023/06/23 08:19:21;;;;;;;10.50;9.60;;;48.60;10.60;;;;;;5058840;28;20199;-79
2023/06/23 08:21:57;;;;;;;11.00;10.00;;;49.30;9.70;;;;;;5056718;28;20668;-79
2023/06/23 08:24:22;;;;;;;11.20;10.20;;;49.80;8.80;;;;;;5036063;28;20435;-76
2023/06/23 08:26:48;;;;;;;9.03;8.13;;;50.20;7.50;;;;;;5058395;28;20553;-78
2023/06/23 08:29:14;;;;;;;8.27;7.67;;;50.20;6.10;;;;;;5052391;28;20185;-78
2023/06/23 08:31:39;;;;;;;9.60;8.83;;;49.40;3.00;;;;;;5038537;28;20220;-79
2023/06/23 08:34:05;;;;;;;9.00;8.30;;;49.50;1.50;;;;;;5054631;28;20745;-78
2023/06/23 08:36:31;;;;;;;9.97;9.07;;;48.70;1.00;;;;;;5053062;28;20217;-78
2023/06/23 08:38:56;;;;;;;9.83;9.00;;;47.10;1.00;;;;;;5046573;28;20177;-79
2023/06/23 08:41:23;;;;;;;10.50;9.60;;;45.40;1.00;;;;;;5050225;28;20786;-77
2023/06/23 08:43:51;;;;;;;10.00;9.10;;;46.20;1.00;;;;;;5050302;28;20191;-78
2023/06/23 08:46:18;;;;;;;8.03;7.30;;;47.30;1.00;;;;;;5051827;28;20523;-77
2023/06/23 08:48:48;;;;;;;7.90;7.20;;;46.70;1.00;;;;;;5049484;28;20439;-77
2023/06/23 08:51:15;;;;;;;9.33;8.43;;;46.00;1.00;;;;;;5051995;28;20454;-79
2023/06/23 08:53:42;;;;;;;9.00;6.80;;;45.50;1.00;;;;;;5046875;28;20443;-77
2023/06/23 08:56:08;;;;;;;7.13;6.53;;;46.80;1.00;;;;;;5052741;28;20467;-78
2023/06/23 08:58:33;;;;;;;9.03;8.13;;;48.20;1.00;;;;;;5052245;28;20489;-79
2023/06/23 09:00:59;;;;;;;8.83;8.00;;;48.80;1.00;;;;;;5053502;28;20181;-78
2023/06/23 09:03:24;;;;;;;8.83;8.03;;;47.80;1.00;;;;;;5055057;28;20319;-79
2023/06/23 09:05:50;;;;;;;8.40;7.70;;;46.60;1.00;;;;;;5054628;28;20182;-79
2023/06/23 09:08:16;;;;;;;7.80;7.10;;;46.90;1.00;;;;;;5051889;28;20201;-79
2023/06/23 09:10:42;;;;;;;7.00;6.30;;;47.70;1.00;;;;;;5056573;28;20986;-79
2023/06/23 09:13:07;;;;;;;8.40;7.70;;;48.70;1.00;;;;;;5051912;28;20212;-79
2023/06/23 09:15:34;;;;;;;6.90;6.30;;;49.20;1.00;;;;;;5049813;28;20494;-80
2023/06/23 09:18:03;;;;;;;8.00;7.20;;;49.40;1.00;;;;;;5054657;28;20197;-79
2023/06/23 09:20:30;;;;;;;8.17;7.47;;;49.50;1.00;;;;;;5054230;28;20435;-80
2023/06/23 09:22:57;;;;;;;8.17;7.20;;;49.70;1.00;;;;;;5037614;28;20437;-77
2023/06/23 09:25:44;;;;;;;8.27;7.57;;;49.90;1.00;;;;;;5021587;28;20443;-79
2023/06/23 09:28:26;;;;;;;7.60;7.00;;;49.70;1.00;;;;;;5054065;28;20968;-79
2023/06/23 09:30:53;;;;;;;8.17;7.47;;;49.20;1.00;;;;;;5049375;28;21078;-78
2023/06/23 09:33:20;;;;;;;7.70;6.93;;;49.30;1.00;;;;;;5051752;28;20447;-78
2023/06/23 09:35:51;;;;;;;12.43;7.13;;;49.20;1.00;;;;;;5048592;28;20463;-78
2023/06/23 09:38:18;;;;;;;7.13;6.40;;;49.20;1.00;;;;;;5051696;28;20451;-78
2023/06/23 09:40:44;;;;;;;8.63;7.83;;;49.30;1.00;;;;;;5050433;28;20581;-78
2023/06/23 09:43:09;;;;;;;7.00;6.27;;;48.30;1.00;;;;;;5047450;28;20518;-77
2023/06/23 09:45:35;;;;;;;6.07;5.57;;;47.50;1.00;;;;;;5028225;28;20173;-78
2023/06/23 09:48:00;;;;;;;7.07;6.37;;;47.60;1.00;;;;;;5047198;28;20233;-78
2023/06/23 09:50:27;;;;;;;6.00;5.50;;;47.30;1.00;;;;;;5041681;28;20219;-78
2023/06/23 09:53:05;;;;;;;6.50;5.90;;;47.50;1.00;;;;;;5048887;28;20215;-78
2023/06/23 09:55:33;;;;;;;5.70;5.10;;;47.80;1.00;;;;;;5048901;28;20480;-78
2023/06/23 09:58:03;;;;;;;6.17;5.03;;;47.70;1.00;;;;;;5048859;28;20456;-77
2023/06/23 10:00:32;;;;;;;5.33;4.90;;;47.80;1.00;;;;;;5045484;28;20440;-77
2023/06/23 10:03:02;;;;;;;5.43;5.00;;;47.70;1.00;;;;;;5050246;28;20917;-77
2023/06/23 10:05:34;;;;;;;5.50;4.67;;;47.70;1.00;;;;;;5047702;28;20449;-78
2023/06/23 10:08:11;;;;;;;5.63;5.13;;;47.80;1.00;;;;;;5044796;28;20459;-78
2023/06/23 10:10:43;;;;;;;7.33;6.20;;;47.80;1.00;;;;;;5048905;28;20447;-78
2023/06/23 10:13:09;;;;;;;7.90;5.23;;;47.60;1.00;;;;;;5047992;28;20509;-77
2023/06/23 10:15:36;;;;;;;5.90;5.40;;;47.20;1.00;;;;;;5046593;28;20482;-78
2023/06/23 10:18:02;;;;;;;4.93;4.47;;;47.00;1.00;;;;;;5049459;28;20559;-78
2023/06/23 10:20:28;;;;;;;4.97;4.47;;;46.80;1.00;;;;;;5050830;28;20526;-77
2023/06/23 10:22:55;;;;;;;5.17;4.67;;;46.80;1.00;;;;;;5047656;28;20443;-77
2023/06/23 10:25:22;;;;;;;5.07;4.57;;;46.60;1.00;;;;;;5045538;28;20428;-77
2023/06/23 10:27:50;;;;;;;4.90;4.50;;;46.60;1.00;;;;;;5046723;28;20468;-77
2023/06/23 10:30:18;;;;;;;5.50;5.00;;;46.50;1.00;;;;;;5045438;28;20432;-77
2023/06/23 10:32:49;;;;;;;6.10;5.50;;;46.10;1.00;;;;;;5047775;28;20447;-78
2023/06/23 10:35:20;;;;;;;5.40;4.90;;;45.90;1.00;;;;;;5042548;28;20498;-78
2023/06/23 10:37:48;;;;;;;5.60;4.90;;;45.80;1.00;;;;;;5038685;28;20526;-78
2023/06/23 10:40:19;;;;;;;3.93;3.63;;;45.80;1.00;;;;;;5042006;28;20444;-77
2023/06/23 10:42:49;;;;;;;4.93;4.43;;;46.00;1.00;;;;;;5041773;28;20486;-78
2023/06/23 10:45:15;;;;;;;5.73;5.23;;;45.70;1.00;;;;;;5045843;28;20448;-77
2023/06/23 10:47:41;;;;;;;3.80;3.50;;;45.50;1.00;;;;;;5047009;28;20577;-78
2023/06/23 10:50:08;;;;;;;5.73;5.33;;;45.50;1.00;;;;;;5043796;28;20189;-77
2023/06/23 10:52:34;;;;;;;5.37;4.97;;;45.80;1.00;;;;;;5035164;28;20440;-77
2023/06/23 10:55:00;;;;;;;5.67;5.17;;;45.70;1.00;;;;;;5042916;28;20525;-78
2023/06/23 10:57:26;;;;;;;5.67;5.17;;;45.80;1.00;;;;;;5041575;28;20205;-77
2023/06/23 11:00:07;;;;;;;7.43;5.60;;;45.90;1.00;;;;;;5043660;28;20548;-76
2023/06/23 11:02:59;;;;;;;4.67;4.27;;;45.80;1.00;;;;;;5038208;28;20239;-78
2023/06/23 11:05:24;;;;;;;4.37;3.97;;;45.80;1.00;;;;;;5029733;28;20456;-78
2023/06/23 11:08:01;;;;;;;5.10;4.37;;;45.80;1.00;;;;;;5035936;28;20988;-78
2023/06/23 11:10:55;;;;;;;4.87;4.40;;;45.90;1.00;;;;;;5039284;28;20197;-77
2023/06/23 11:13:25;;;;;;;6.50;5.90;;;45.70;1.00;;;;;;5039911;28;20585;-77
2023/06/23 11:15:54;;;;;;;6.53;5.73;;;44.80;1.00;;;;;;5041680;28;20587;-77
2023/06/23 11:18:25;;;;;;;5.90;5.40;;;44.40;1.00;;;;;;5021045;28;20460;-78
2023/06/23 11:20:50;;;;;;;7.70;5.20;;;44.40;1.00;;;;;;5041449;28;20447;-77
2023/06/23 11:23:16;;;;;;;6.33;5.70;;;44.50;1.00;;;;;;5040019;28;20427;-77
2023/06/23 11:25:48;;;;;;;5.00;4.50;;;44.70;1.00;;;;;;5043066;28;20189;-77
2023/06/23 11:28:39;;;;;;;4.20;3.80;;;44.40;1.00;;;;;;5044400;28;20217;-79
2023/06/23 11:31:15;;;;;;;5.53;5.03;;;44.20;1.00;;;;;;5033668;28;21072;-78
2023/06/23 11:33:41;;;;;;;5.23;4.80;;;44.20;1.00;;;;;;5042236;28;20953;-77
2023/06/23 11:36:19;;;;;;;5.40;4.90;;;44.20;1.00;;;;;;5046520;28;20463;-77
2023/06/23 11:38:45;;;;;;;6.10;5.60;;;44.10;1.00;;;;;;5045942;28;20427;-76
2023/06/23 11:41:13;;;;;;;6.20;5.60;;;43.50;1.00;;;;;;5048633;28;20419;-77
2023/06/23 11:43:39;;;;;;;6.23;5.73;;;43.00;1.00;;;;;;5046216;28;20431;-78
2023/06/23 11:46:09;;;;;;;6.20;5.10;;;42.50;1.00;;;;;;5041795;28;20439;-77
2023/06/23 11:48:36;;;;;;;5.10;4.60;;;41.30;1.00;;;;;;5048020;28;20228;-77
2023/06/23 11:51:06;;;;;;;6.70;5.27;;;40.00;1.00;;;;;;5045245;28;20444;-77
2023/06/23 11:53:32;;;;;;;4.23;3.90;;;39.50;1.00;;;;;;5046840;28;20436;-77
2023/06/23 11:55:59;;;;;;;5.03;4.53;;;39.70;1.00;;;;;;5045158;28;20533;-78
2023/06/23 11:58:32;;;;;;;5.97;5.47;;;40.10;1.00;;;;;;5047605;28;20463;-79
2023/06/23 12:00:58;;;;;;;4.97;4.57;;;40.10;1.00;;;;;;5043913;28;20431;-78
2023/06/23 12:03:25;;;;;;;4.60;4.20;;;40.20;1.00;;;;;;5048521;28;20493;-77
2023/06/23 12:05:51;;;;;;;3.97;3.60;;;40.60;1.00;;;;;;5044171;28;20458;-78
2023/06/23 12:08:16;;;;;;;6.00;4.30;;;40.90;1.00;;;;;;5046312;28;20486;-78
2023/06/23 12:10:42;;;;;;;4.43;3.20;;;41.00;1.00;;;;;;5040348;28;20467;-77
2023/06/23 12:13:09;;;;;;;6.43;4.07;;;40.80;1.00;;;;;;5045927;28;20229;-78
2023/06/23 12:15:39;;;;;;;3.77;3.47;;;40.60;1.00;;;;;;5045764;28;20482;-77
2023/06/23 12:18:05;;;;;;;3.53;3.20;;;40.60;1.00;;;;;;5052868;28;20458;-77
2023/06/23 12:20:49;;;;;;;5.27;4.00;;;40.50;1.00;;;;;;5049942;28;20865;-77
2023/06/23 12:23:14;;;;;;;3.37;3.07;;;40.30;1.00;;;;;;5048647;28;20490;-77
2023/06/23 12:25:45;;;;;;;2.97;2.70;;;40.00;1.00;;;;;;5047586;28;20435;-77
2023/06/23 12:28:13;;;;;;;6.33;3.20;;;39.80;1.00;;;;;;5043582;28;20263;-78
2023/06/23 12:30:43;;;;;;;2.93;2.67;;;39.50;1.00;;;;;;5043687;28;20432;-77
2023/06/23 12:33:38;;;;;;;3.37;3.07;;;39.30;1.00;;;;;;5050307;28;20529;-78
2023/06/23 12:36:05;;;;;;;3.23;2.70;;;39.20;1.00;;;;;;5046904;28;20498;-77
2023/06/23 12:38:32;;;;;;;3.07;2.70;;;39.20;1.00;;;;;;5049592;28;20431;-77
2023/06/23 12:41:14;;;;;;;3.43;3.10;;;38.80;1.00;;;;;;5049532;28;20432;-77
2023/06/23 12:43:40;;;;;;;3.50;3.10;;;38.70;1.00;;;;;;5050107;28;20466;-77
2023/06/23 12:46:05;;;;;;;5.50;3.40;;;38.60;1.00;;;;;;5034365;28;20477;-78
2023/06/23 12:48:31;;;;;;;3.40;3.10;;;38.60;1.00;;;;;;5048228;28;20221;-77
2023/06/23 12:50:58;;;;;;;4.43;3.70;;;38.50;1.00;;;;;;5046332;28;20620;-77